createdAt,value
2022-08-28T00:00:40.636Z,96951.91
2022-08-28T00:03:08.473Z,96956.00
2022-08-28T00:05:36.470Z,96954.56
2022-08-28T00:08:04.454Z,96953.53
2022-08-28T00:10:32.657Z,96960.50
2022-08-28T00:13:00.421Z,96961.16
2022-08-28T00:15:29.866Z,96960.41
2022-08-28T00:17:57.626Z,96960.16
2022-08-28T00:20:25.332Z,96955.56
2022-08-28T00:22:53.056Z,96954.50
2022-08-28T00:25:24.502Z,96959.44
2022-08-28T00:27:57.709Z,96952.75
2022-08-28T00:32:23.828Z,96969.19
2022-08-28T00:34:51.435Z,96961.19
2022-08-28T00:37:25.607Z,96964.56
2022-08-28T00:39:54.178Z,96962.63
2022-08-28T00:42:21.919Z,96966.66
2022-08-28T00:44:48.948Z,96958.69
2022-08-28T00:47:15.875Z,96961.59
2022-08-28T00:49:52.816Z,96957.75
2022-08-28T00:52:22.328Z,96958.13
2022-08-28T00:54:59.307Z,96959.34
2022-08-28T00:57:30.049Z,96966.84
2022-08-28T00:59:59.950Z,96957.56
2022-08-28T01:02:27.853Z,96962.63
2022-08-28T01:04:56.131Z,96970.69
2022-08-28T01:07:28.521Z,96964.56
2022-08-28T01:09:58.091Z,96960.72
2022-08-28T01:12:33.134Z,96964.00
2022-08-28T01:15:16.419Z,96965.63
2022-08-28T01:17:50.086Z,96971.34
2022-08-28T01:20:22.279Z,96969.50
2022-08-28T01:23:12.283Z,96966.28
2022-08-28T01:25:40.748Z,96968.13
2022-08-28T01:28:13.027Z,96955.00
2022-08-28T01:30:47.925Z,96960.97
2022-08-28T01:33:16.601Z,96958.06
2022-08-28T01:35:48.914Z,96960.72
2022-08-28T01:38:21.906Z,96958.69
2022-08-28T01:40:58.643Z,96966.03
2022-08-28T01:43:29.058Z,96964.34
2022-08-28T01:46:04.914Z,96963.72
2022-08-28T01:48:37.964Z,96966.41
2022-08-28T01:51:06.400Z,96959.81
2022-08-28T01:53:35.328Z,96970.03
2022-08-28T01:56:12.227Z,96964.47
2022-08-28T01:58:41.255Z,96967.84
2022-08-28T02:01:16.440Z,96964.81
2022-08-28T02:03:45.951Z,96962.16
2022-08-28T02:06:14.226Z,96962.88
2022-08-28T02:09:07.366Z,96955.09
2022-08-28T02:12:16.077Z,96957.13
2022-08-28T02:14:46.371Z,96958.66
2022-08-28T02:25:25.363Z,96965.97
2022-08-28T02:46:55.355Z,96973.75
2022-08-28T02:49:39.235Z,96973.94
2022-08-28T02:52:07.106Z,96966.16
2022-08-28T03:34:31.033Z,96985.41
2022-08-28T03:36:58.819Z,96986.06
2022-08-28T03:39:26.129Z,96986.06
2022-08-28T03:41:53.197Z,96982.59
2022-08-28T03:44:20.329Z,96982.22
2022-08-28T03:46:47.831Z,96984.59
2022-08-28T03:49:15.390Z,96992.75
2022-08-28T03:51:44.156Z,96990.72
2022-08-28T03:54:25.690Z,96986.22
2022-08-28T03:56:53.559Z,96995.56
2022-08-28T03:59:26.633Z,97000.16
2022-08-28T04:01:59.807Z,97000.16
2022-08-28T04:04:26.905Z,96992.84
2022-08-28T04:06:56.169Z,96996.97
2022-08-28T04:09:23.453Z,96996.69
2022-08-28T04:23:12.563Z,96993.41
2022-08-28T04:25:40.646Z,97006.66
2022-08-28T04:28:13.969Z,97005.91
2022-08-28T04:30:42.503Z,97004.38
2022-08-28T04:33:11.191Z,97004.84
2022-08-28T04:35:50.654Z,97004.09
2022-08-28T04:38:18.493Z,97002.56
2022-08-28T04:40:45.399Z,97004.19
2022-08-28T04:45:57.362Z,97003.66
2022-08-28T04:48:25.298Z,96999.91
2022-08-28T04:50:52.521Z,96998.44
2022-08-28T04:53:23.984Z,96992.78
2022-08-28T04:55:59.195Z,97006.00
2022-08-28T04:58:31.174Z,97006.38
2022-08-28T05:00:58.697Z,97006.84
2022-08-28T05:03:29.052Z,96999.38
2022-08-28T05:05:56.535Z,96990.66
2022-08-28T05:08:27.897Z,97009.25
2022-08-28T05:10:56.333Z,97003.59
2022-08-28T05:13:23.654Z,97008.66
2022-08-28T05:15:52.816Z,97004.28
2022-08-28T05:18:23.218Z,97010.25
2022-08-28T05:20:50.195Z,97002.50
2022-08-28T05:23:18.089Z,97002.91
2022-08-28T05:25:49.524Z,97000.78
2022-08-28T05:28:17.532Z,97004.59
2022-08-28T05:30:52.389Z,97009.63
2022-08-28T05:33:21.063Z,97002.69
2022-08-28T05:35:48.536Z,97004.78
2022-08-28T05:38:17.573Z,96998.59
2022-08-28T05:40:49.769Z,97005.72
2022-08-28T05:43:18.817Z,96998.22
2022-08-28T05:45:46.354Z,97006.16
2022-08-28T05:48:16.824Z,97004.78
2022-08-28T05:50:47.391Z,97002.22
2022-08-28T05:53:14.844Z,97000.56
2022-08-28T05:55:42.322Z,96999.81
2022-08-28T05:58:34.994Z,97010.34
2022-08-28T06:01:34.286Z,97005.31
2022-08-28T06:04:10.444Z,97008.25
2022-08-28T06:06:39.846Z,97009.28
2022-08-28T06:09:29.428Z,97010.56
2022-08-28T06:11:59.688Z,97020.09
2022-08-28T06:14:35.076Z,97008.31
2022-08-28T06:17:02.812Z,97011.78
2022-08-28T06:19:31.670Z,97012.06
2022-08-28T06:22:07.535Z,97008.13
2022-08-28T06:24:38.642Z,97007.97
2022-08-28T06:27:06.015Z,97009.31
2022-08-28T06:29:33.376Z,97004.41
2022-08-28T06:32:05.148Z,97006.31
2022-08-28T06:34:32.401Z,97007.47
2022-08-28T06:37:10.089Z,96998.63
2022-08-28T06:39:37.592Z,97006.50
2022-08-28T06:42:06.424Z,97003.63
2022-08-28T06:44:33.849Z,96999.06
2022-08-28T06:47:00.703Z,96998.94
2022-08-28T06:49:28.065Z,96995.25
2022-08-28T06:51:56.433Z,96999.84
2022-08-28T06:54:31.189Z,97001.34
2022-08-28T06:56:58.513Z,96993.91
2022-08-28T07:02:30.605Z,96988.84
2022-08-28T07:04:57.712Z,96993.88
2022-08-28T07:07:31.480Z,96990.25
2022-08-28T07:09:59.102Z,96988.16
2022-08-28T07:12:26.240Z,96981.69
2022-08-28T07:14:53.306Z,96986.69
2022-08-28T07:17:20.421Z,96973.69
2022-08-28T07:19:47.759Z,96990.00
2022-08-28T07:22:14.835Z,96982.72
2022-08-28T07:24:42.054Z,96977.28
2022-08-28T07:27:09.753Z,96980.25
2022-08-28T07:29:36.936Z,96980.75
2022-08-28T07:32:04.528Z,96983.41
2022-08-28T07:34:42.107Z,96980.13
2022-08-28T07:37:12.186Z,96975.25
2022-08-28T07:39:45.768Z,96975.38
2022-08-28T07:42:35.567Z,96977.72
2022-08-28T07:45:03.857Z,96977.34
2022-08-28T07:47:32.001Z,96973.84
2022-08-28T07:50:02.434Z,96967.03
2022-08-28T07:52:29.807Z,96977.78
2022-08-28T07:54:57.706Z,96971.56
2022-08-28T07:57:25.169Z,96967.69
2022-08-28T07:59:52.859Z,96961.56
2022-08-28T08:02:20.047Z,96955.13
2022-08-28T08:04:50.060Z,96961.63
2022-08-28T08:07:21.371Z,96953.66
2022-08-28T08:09:49.123Z,96962.66
2022-08-28T08:12:17.484Z,96955.00
2022-08-28T08:14:44.508Z,96957.25
2022-08-28T08:17:11.511Z,96963.53
2022-08-28T08:19:43.273Z,96961.09
2022-08-28T08:22:10.304Z,96963.25
2022-08-28T08:24:37.199Z,96965.63
2022-08-28T08:27:04.647Z,96966.91
2022-08-28T08:29:36.222Z,96962.91
2022-08-28T08:32:07.223Z,96958.28
2022-08-28T08:34:40.251Z,96954.81
2022-08-28T08:37:08.881Z,96958.97
2022-08-28T08:39:37.225Z,96955.47
2022-08-28T08:42:07.981Z,96958.00
2022-08-28T08:44:42.605Z,96957.38
2022-08-28T08:47:16.215Z,96950.28
2022-08-28T08:50:09.048Z,96950.66
2022-08-28T08:52:45.161Z,96949.53
2022-08-28T08:55:23.684Z,96953.69
2022-08-28T08:58:05.625Z,96955.53
2022-08-28T09:00:38.608Z,96957.16
2022-08-28T09:03:22.475Z,96957.88
2022-08-28T09:06:03.928Z,96953.31
2022-08-28T09:08:37.044Z,96948.66
2022-08-28T09:11:34.035Z,96950.75
2022-08-28T09:14:16.265Z,96940.63
2022-08-28T09:16:48.030Z,96940.38
2022-08-28T09:19:21.137Z,96945.44
2022-08-28T09:21:50.369Z,96946.34
2022-08-28T09:24:24.465Z,96943.31
2022-08-28T09:27:03.889Z,96954.88
2022-08-28T09:29:40.467Z,96948.28
2022-08-28T09:32:38.248Z,96951.78
2022-08-28T09:35:24.156Z,96952.44
2022-08-28T09:37:52.263Z,96949.66
2022-08-28T09:40:53.249Z,96953.84
2022-08-28T09:43:30.225Z,96949.47
2022-08-28T09:46:03.182Z,96941.34
2022-08-28T09:48:43.791Z,96941.34
2022-08-28T09:51:14.775Z,96939.88
2022-08-28T09:54:24.060Z,96941.34
2022-08-28T09:56:52.018Z,96931.84
2022-08-28T09:59:23.130Z,96939.53
2022-08-28T10:01:58.960Z,96943.59
2022-08-28T10:04:44.459Z,96945.00
2022-08-28T10:07:39.158Z,96939.50
2022-08-28T10:10:27.749Z,96945.88
2022-08-28T10:13:28.937Z,96940.94
2022-08-28T10:16:23.822Z,96929.13
2022-08-28T10:18:59.311Z,96933.06
2022-08-28T10:21:32.271Z,96935.25
2022-08-28T10:24:15.384Z,96933.84
2022-08-28T10:27:09.829Z,96931.03
2022-08-28T10:30:12.899Z,96932.75
2022-08-28T10:33:23.577Z,96927.63
2022-08-28T10:36:04.298Z,96920.53
2022-08-28T10:38:40.534Z,96925.19
2022-08-28T10:41:15.182Z,96913.09
2022-08-28T10:43:48.007Z,96923.34
2022-08-28T10:46:27.024Z,96913.03
2022-08-28T10:49:03.450Z,96912.16
2022-08-28T10:51:46.356Z,96915.31
2022-08-28T10:54:31.026Z,96916.19
2022-08-28T10:57:23.053Z,96912.81
2022-08-28T10:59:54.288Z,96914.66
2022-08-28T11:02:26.114Z,96918.38
2022-08-28T11:04:58.652Z,96920.03
2022-08-28T11:07:37.531Z,96921.53
2022-08-28T11:10:35.409Z,96919.66
2022-08-28T11:13:05.001Z,96910.78
2022-08-28T11:15:37.230Z,96913.53
2022-08-28T11:18:17.103Z,96921.16
2022-08-28T11:21:03.017Z,96915.63
2022-08-28T11:24:01.990Z,96916.91
2022-08-28T11:27:19.387Z,96920.41
2022-08-28T11:30:02.205Z,96912.09
2022-08-28T11:32:36.038Z,96902.09
2022-08-28T11:35:21.987Z,96901.84
2022-08-28T11:37:54.323Z,96904.19
2022-08-28T11:40:34.719Z,96902.63
2022-08-28T11:43:49.949Z,96901.06
2022-08-28T11:46:19.956Z,96899.84
2022-08-28T11:48:54.175Z,96900.66
2022-08-28T11:52:06.305Z,96903.47
2022-08-28T11:55:07.008Z,96890.50
2022-08-28T12:00:37.289Z,96884.50
2022-08-28T12:03:12.554Z,96889.00
2022-08-28T12:05:45.430Z,96888.59
2022-08-28T12:08:14.030Z,96883.84
2022-08-28T12:10:59.957Z,96883.25
2022-08-28T12:13:56.307Z,96886.88
2022-08-28T12:16:23.343Z,96881.72
2022-08-28T12:18:50.436Z,96886.09
2022-08-28T12:21:27.021Z,96877.47
2022-08-28T12:24:16.428Z,96879.38
2022-08-28T12:26:53.571Z,96880.31
2022-08-28T12:29:35.601Z,96871.41
2022-08-28T12:32:27.078Z,96870.19
2022-08-28T12:35:01.188Z,96883.19
2022-08-28T12:38:00.098Z,96882.31
2022-08-28T12:40:59.557Z,96872.59
2022-08-28T12:43:44.296Z,96876.94
2022-08-28T12:46:21.100Z,96863.09
2022-08-28T12:48:58.891Z,96871.91
2022-08-28T12:51:31.359Z,96868.88
2022-08-28T12:54:14.092Z,96862.19
2022-08-28T12:56:41.435Z,96857.59
2022-08-28T12:59:37.010Z,96853.94
2022-08-28T13:02:19.838Z,96859.47
2022-08-28T13:05:09.950Z,96849.78
2022-08-28T13:07:49.473Z,96860.91
2022-08-28T13:10:30.234Z,96853.41
2022-08-28T13:13:06.506Z,96862.91
2022-08-28T13:15:46.129Z,96857.97
2022-08-28T13:18:46.320Z,96852.59
2022-08-28T13:21:31.723Z,96851.41
2022-08-28T13:24:22.239Z,96851.69
2022-08-28T13:27:12.732Z,96861.72
2022-08-28T13:30:01.734Z,96856.03
2022-08-28T13:32:32.780Z,96852.66
2022-08-28T13:35:17.178Z,96860.25
2022-08-28T13:37:49.236Z,96862.28
2022-08-28T13:40:55.728Z,96854.31
2022-08-28T13:43:19.506Z,96853.47
2022-08-28T13:45:51.323Z,96853.16
2022-08-28T13:48:23.327Z,96855.41
2022-08-28T13:51:14.288Z,96855.06
2022-08-28T13:53:48.478Z,96856.69
2022-08-28T13:56:18.230Z,96863.31
2022-08-28T13:58:50.010Z,96855.34
2022-08-28T14:01:45.686Z,96852.00
2022-08-28T14:04:19.380Z,96854.63
2022-08-28T14:06:46.776Z,96852.38
2022-08-28T14:09:17.766Z,96852.22
2022-08-28T14:11:46.819Z,96861.72
2022-08-28T14:14:14.518Z,96855.03
2022-08-28T14:16:52.175Z,96858.72
2022-08-28T14:19:22.292Z,96855.81
2022-08-28T14:21:49.463Z,96862.19
2022-08-28T14:24:17.187Z,96857.94
2022-08-28T14:26:46.130Z,96858.53
2022-08-28T14:29:15.636Z,96861.28
2022-08-28T14:31:45.144Z,96864.06
2022-08-28T14:34:19.168Z,96868.69
2022-08-28T14:36:55.395Z,96858.09
2022-08-28T14:39:25.906Z,96857.59
2022-08-28T14:41:53.777Z,96856.47
2022-08-28T14:44:23.445Z,96865.66
2022-08-28T14:46:56.951Z,96855.03
2022-08-28T14:49:25.953Z,96858.25
2022-08-28T14:51:54.555Z,96852.81
2022-08-28T14:54:24.532Z,96859.00
2022-08-28T14:56:52.973Z,96857.91
2022-08-28T14:59:24.794Z,96850.25
2022-08-28T15:01:53.268Z,96850.50
2022-08-28T15:04:23.217Z,96847.72
2022-08-28T15:06:58.481Z,96853.41
2022-08-28T15:09:26.435Z,96848.59
2022-08-28T15:11:53.855Z,96852.44
2022-08-28T15:14:24.420Z,96851.41
2022-08-28T15:16:51.706Z,96853.41
2022-08-28T15:19:18.850Z,96852.06
2022-08-28T15:21:57.083Z,96848.56
2022-08-28T15:28:58.821Z,96842.91
2022-08-28T15:31:07.372Z,96853.19
2022-08-28T15:37:34.467Z,96850.25
2022-08-28T15:40:44.596Z,96850.78
2022-08-28T15:53:18.403Z,96858.19
2022-08-28T15:56:45.453Z,96856.69
2022-08-28T15:59:49.499Z,96855.38
2022-08-28T16:02:32.847Z,96864.84
2022-08-28T16:05:49.251Z,96859.56
2022-08-28T16:11:55.396Z,96851.81
2022-08-28T16:14:57.793Z,96865.47
2022-08-28T16:20:31.651Z,96867.47
2022-08-28T16:26:13.493Z,96865.88
2022-08-28T16:29:27.924Z,96869.41
2022-08-28T16:32:12.562Z,96872.66
2022-08-28T16:41:45.814Z,96885.09
2022-08-28T16:45:04.161Z,96892.38
2022-08-28T16:47:52.798Z,96894.63
2022-08-28T16:50:34.693Z,96897.44
2022-08-28T16:56:35.219Z,96891.13
2022-08-28T16:59:20.390Z,96902.56
2022-08-28T17:02:30.835Z,96900.22
2022-08-28T17:05:13.994Z,96912.88
2022-08-28T17:08:00.572Z,96930.28
2022-08-28T17:10:59.666Z,96919.38
2022-08-28T17:13:30.865Z,96918.66
2022-08-28T17:19:00.212Z,96928.94
2022-08-28T17:21:50.825Z,96930.50
2022-08-28T17:24:18.125Z,96934.78
2022-08-28T17:26:45.127Z,96937.91
2022-08-28T17:29:47.379Z,96934.59
2022-08-28T17:32:15.563Z,96936.19
2022-08-28T17:35:16.747Z,96937.19
2022-08-28T17:38:20.134Z,96940.66
2022-08-28T17:41:24.184Z,96959.31
2022-08-28T17:44:28.252Z,96958.84
2022-08-28T17:46:56.420Z,96959.00
2022-08-28T17:49:27.473Z,96972.56
2022-08-28T17:52:13.222Z,96968.31
2022-08-28T17:54:52.091Z,96972.47
2022-08-28T17:57:30.905Z,96975.06
2022-08-28T18:00:08.260Z,96982.34
2022-08-28T18:02:58.847Z,96981.41
2022-08-28T18:05:38.449Z,96979.84
2022-08-28T18:08:45.099Z,96989.81
2022-08-28T18:11:45.146Z,96999.75
2022-08-28T18:14:30.986Z,97006.81
2022-08-28T18:17:04.113Z,97002.34
2022-08-28T18:19:37.373Z,97011.38
2022-08-28T18:22:14.719Z,97004.81
2022-08-28T18:28:22.745Z,97008.25
2022-08-28T18:31:15.460Z,97021.47
2022-08-28T18:34:40.410Z,97018.22
2022-08-28T18:37:11.564Z,97021.94
2022-08-28T18:39:40.954Z,97024.22
2022-08-28T18:42:22.177Z,97018.25
2022-08-28T18:45:01.075Z,97032.66
2022-08-28T18:48:16.713Z,97026.91
2022-08-28T18:54:50.374Z,97032.88
2022-08-28T18:57:46.571Z,97038.03
2022-08-28T19:00:30.596Z,97033.53
2022-08-28T19:03:44.134Z,97043.44
2022-08-28T19:10:32.922Z,97049.19
2022-08-28T19:13:21.883Z,97053.72
2022-08-28T19:16:01.919Z,97042.44
2022-08-28T19:18:53.086Z,97052.91
2022-08-28T19:21:35.980Z,97058.25
2022-08-28T19:24:19.850Z,97057.84
2022-08-28T19:27:01.854Z,97051.25
2022-08-28T19:29:54.292Z,97063.56
2022-08-28T19:32:34.429Z,97059.88
2022-08-28T19:35:05.461Z,97066.00
2022-08-28T19:37:39.736Z,97072.19
2022-08-28T19:40:15.147Z,97068.88
2022-08-28T19:42:52.175Z,97069.31
2022-08-28T19:45:37.638Z,97072.16
2022-08-28T19:52:08.109Z,97069.69
2022-08-28T19:54:44.018Z,97076.88
2022-08-28T19:57:37.266Z,97071.91
2022-08-28T20:00:21.521Z,97081.13
2022-08-28T20:03:03.942Z,97076.81
2022-08-28T20:06:11.528Z,97083.56
2022-08-28T20:15:18.447Z,97092.53
2022-08-28T20:17:49.859Z,97091.69
2022-08-28T20:20:29.339Z,97093.94
2022-08-28T20:23:10.518Z,97095.53
2022-08-28T20:31:53.961Z,97103.47
2022-08-28T20:34:34.729Z,97103.88
2022-08-28T20:37:07.061Z,97104.25
2022-08-28T20:42:47.359Z,97105.47
2022-08-28T20:45:22.794Z,97105.03
2022-08-28T20:47:55.030Z,97099.91
2022-08-28T20:50:36.064Z,97110.38
2022-08-28T20:53:14.477Z,97111.56
2022-08-28T20:56:08.400Z,97110.28
2022-08-28T20:58:46.431Z,97107.81
2022-08-28T21:01:37.736Z,97102.22
2022-08-28T21:04:32.682Z,97110.22
2022-08-28T21:07:12.914Z,97103.25
2022-08-28T21:10:05.679Z,97099.94
2022-08-28T21:12:49.548Z,97107.50
2022-08-28T21:15:22.404Z,97114.56
2022-08-28T21:17:50.270Z,97107.44
2022-08-28T21:20:17.775Z,97111.63
2022-08-28T21:22:46.158Z,97110.38
2022-08-28T21:25:18.274Z,97113.19
2022-08-28T21:28:04.215Z,97116.25
2022-08-28T21:30:35.496Z,97117.66
2022-08-28T21:33:03.247Z,97118.47
2022-08-28T21:35:30.694Z,97116.59
2022-08-28T21:38:01.515Z,97120.00
2022-08-28T21:40:32.240Z,97121.09
2022-08-28T21:43:05.020Z,97120.06
2022-08-28T21:45:33.729Z,97112.47
2022-08-28T21:48:01.418Z,97114.25
2022-08-28T21:50:38.162Z,97108.09
2022-08-28T21:53:36.250Z,97119.94
2022-08-28T21:56:05.538Z,97118.09
2022-08-28T21:58:55.103Z,97117.47
2022-08-28T22:01:29.352Z,97108.47
2022-08-28T22:03:59.927Z,97112.66
2022-08-28T22:06:30.834Z,97114.88
2022-08-28T22:08:59.167Z,97118.94
2022-08-28T22:11:35.458Z,97112.34
2022-08-28T22:14:03.153Z,97111.75
2022-08-28T22:16:30.717Z,97108.91
2022-08-28T22:18:59.046Z,97110.50
2022-08-28T22:22:05.985Z,97108.94
2022-08-28T22:24:39.410Z,97106.66
2022-08-28T22:27:07.193Z,97103.63
2022-08-28T22:30:00.691Z,97110.63
2022-08-28T22:32:28.680Z,97116.31
2022-08-28T22:34:58.743Z,97113.00
2022-08-28T22:37:29.281Z,97110.91
2022-08-28T22:39:58.257Z,97113.13
2022-08-28T22:42:26.982Z,97109.19
2022-08-28T22:44:55.294Z,97108.53
2022-08-28T22:47:25.831Z,97116.53
2022-08-28T22:49:56.408Z,97106.88
2022-08-28T22:52:23.939Z,97109.44
2022-08-28T22:54:54.975Z,97110.63
2022-08-28T22:57:29.304Z,97113.03
2022-08-28T23:00:01.804Z,97113.03
2022-08-28T23:02:32.965Z,97120.38
2022-08-28T23:05:03.037Z,97114.88
2022-08-28T23:07:33.351Z,97112.13
2022-08-28T23:10:06.626Z,97111.50
2022-08-28T23:12:35.050Z,97119.47
2022-08-28T23:15:19.269Z,97119.41
2022-08-28T23:17:52.247Z,97122.25
2022-08-28T23:20:22.603Z,97122.91
2022-08-28T23:22:50.465Z,97126.28
2022-08-28T23:25:24.998Z,97126.47
2022-08-28T23:27:54.978Z,97127.41
2022-08-28T23:30:23.570Z,97137.19
2022-08-28T23:32:51.961Z,97136.38
2022-08-28T23:35:20.380Z,97134.38
2022-08-28T23:37:51.906Z,97133.63
2022-08-28T23:40:22.072Z,97127.00
2022-08-28T23:42:50.267Z,97132.72
2022-08-28T23:45:27.695Z,97126.38
2022-08-28T23:47:55.764Z,97133.09
2022-08-28T23:50:27.811Z,97121.78
2022-08-28T23:52:58.666Z,97129.50
2022-08-28T23:55:27.099Z,97126.19
2022-08-28T23:57:55.738Z,97136.09
